Time;durP1;ratioP1;P1;durP2;ratioP2;P2;SDS_P1;SDS_P2;PMS_P1;PMS_P2;Temp;Humidity;BMP_temperature;BMP_pressure;BME280_temperature;BME280_humidity;BME280_pressure;Samples;Min_cycle;Max_cycle;Signal;HPM_P1;HPM_P2
2022/10/06 00:01:16;;;;;;;17.23;2.75;;;;;;;;;;4995926;28;94147;-76
2022/10/06 00:03:43;;;;;;;14.55;2.78;;;;;;;;;;4996720;28;94651;-75
2022/10/06 00:06:11;;;;;;;14.50;2.65;;;;;;;;;;4996609;28;92435;-75
2022/10/06 00:08:38;;;;;;;15.73;2.92;;;;;;;;;;5000979;28;93972;-75
2022/10/06 00:11:05;;;;;;;18.50;2.88;;;;;;;;;;5017000;28;93766;-75
2022/10/06 00:13:31;;;;;;;19.02;2.97;;;;;;;;;;5016606;28;92387;-75
2022/10/06 00:15:58;;;;;;;12.77;2.90;;;;;;;;;;5015724;28;93117;-75
2022/10/06 00:18:26;;;;;;;22.70;2.78;;;;;;;;;;5017997;28;96610;-75
2022/10/06 00:20:53;;;;;;;11.15;2.47;;;;;;;;;;5016529;28;96350;-75
2022/10/06 00:23:20;;;;;;;16.65;3.28;;;;;;;;;;5003526;28;93441;-75
2022/10/06 00:25:46;;;;;;;12.65;2.70;;;;;;;;;;4997182;28;92379;-75
2022/10/06 00:28:13;;;;;;;13.75;2.65;;;;;;;;;;4996406;28;93327;-75
2022/10/06 00:30:39;;;;;;;16.58;3.03;;;;;;;;;;4995698;28;93356;-75
2022/10/06 00:33:06;;;;;;;16.23;2.80;;;;;;;;;;4995912;28;92773;-75
2022/10/06 00:35:33;;;;;;;12.75;2.40;;;;;;;;;;4997028;28;91861;-75
2022/10/06 00:38:00;;;;;;;19.38;2.78;;;;;;;;;;4983388;28;95430;-75
2022/10/06 00:40:27;;;;;;;14.98;2.90;;;;;;;;;;4978315;28;92505;-74
2022/10/06 00:42:58;;;;;;;23.25;4.18;;;;;;;;;;4983115;28;95687;-74
2022/10/06 00:45:30;;;;;;;21.35;3.25;;;;;;;;;;4995350;28;92789;-74
2022/10/06 00:47:59;;;;;;;17.67;2.45;;;;;;;;;;4994272;28;95503;-75
2022/10/06 00:50:26;;;;;;;19.95;2.97;;;;;;;;;;4994712;28;93722;-75
2022/10/06 00:52:54;;;;;;;17.50;2.85;;;;;;;;;;4995626;28;92436;-75
2022/10/06 00:55:21;;;;;;;12.48;2.03;;;;;;;;;;4996035;28;93563;-74
2022/10/06 00:57:49;;;;;;;15.15;2.60;;;;;;;;;;4995421;28;93115;-74
2022/10/06 01:00:15;;;;;;;18.90;3.00;;;;;;;;;;5005983;28;91979;-73
2022/10/06 01:02:44;;;;;;;12.98;3.38;;;;;;;;;;5017898;28;93252;-75
2022/10/06 01:05:13;;;;;;;13.10;2.70;;;;;;;;;;5000124;28;92495;-74
2022/10/06 01:07:40;;;;;;;14.55;2.80;;;;;;;;;;4993828;28;94782;-74
2022/10/06 01:10:06;;;;;;;10.90;2.60;;;;;;;;;;4986771;28;93088;-75
2022/10/06 01:12:34;;;;;;;12.93;3.60;;;;;;;;;;4975457;28;92535;-76
2022/10/06 01:15:01;;;;;;;15.48;3.78;;;;;;;;;;4995564;28;93078;-74
2022/10/06 01:17:36;;;;;;;15.40;2.35;;;;;;;;;;5007400;28;93274;-74
2022/10/06 01:20:04;;;;;;;13.15;2.85;;;;;;;;;;5013578;28;92435;-74
2022/10/06 01:22:35;;;;;;;19.27;3.03;;;;;;;;;;5017458;28;95829;-74
2022/10/06 01:25:03;;;;;;;14.25;2.60;;;;;;;;;;5014984;28;91584;-75
2022/10/06 01:27:31;;;;;;;11.45;2.65;;;;;;;;;;4999100;28;94339;-74
2022/10/06 01:29:58;;;;;;;11.55;2.50;;;;;;;;;;4993894;28;95804;-75
2022/10/06 01:32:26;;;;;;;18.85;3.00;;;;;;;;;;4992568;28;94923;-74
2022/10/06 01:34:52;;;;;;;14.88;2.78;;;;;;;;;;4993972;28;98018;-74
2022/10/06 01:37:20;;;;;;;12.48;2.75;;;;;;;;;;4993742;28;95512;-74
2022/10/06 01:39:46;;;;;;;10.38;2.53;;;;;;;;;;4993448;28;93868;-74
2022/10/06 01:42:12;;;;;;;16.40;2.35;;;;;;;;;;4990213;28;93973;-74
2022/10/06 01:44:39;;;;;;;13.63;2.65;;;;;;;;;;4989517;28;93139;-74
2022/10/06 01:47:06;;;;;;;12.77;2.53;;;;;;;;;;5026182;27;94737;-74
2022/10/06 01:49:32;;;;;;;18.55;2.88;;;;;;;;;;4994419;28;95471;-74
2022/10/06 01:51:59;;;;;;;22.48;2.95;;;;;;;;;;4995654;28;92507;-75
2022/10/06 01:54:26;;;;;;;15.38;2.38;;;;;;;;;;4994746;28;92840;-74
2022/10/06 01:56:54;;;;;;;13.48;2.40;;;;;;;;;;4991908;28;98035;-75
2022/10/06 01:59:20;;;;;;;16.92;2.53;;;;;;;;;;4995019;28;92661;-74
2022/10/06 02:01:47;;;;;;;18.58;3.50;;;;;;;;;;4993233;28;95689;-74
2022/10/06 02:04:13;;;;;;;12.65;2.33;;;;;;;;;;4994412;28;92348;-74
2022/10/06 02:06:40;;;;;;;11.13;2.30;;;;;;;;;;4998186;28;92559;-73
2022/10/06 02:09:06;;;;;;;17.88;2.75;;;;;;;;;;5009518;28;95743;-74
2022/10/06 02:11:33;;;;;;;13.18;2.50;;;;;;;;;;5015057;28;92381;-74
2022/10/06 02:14:02;;;;;;;16.45;2.80;;;;;;;;;;5015165;28;95115;-74
2022/10/06 02:16:30;;;;;;;11.43;2.45;;;;;;;;;;5012372;28;94910;-74
2022/10/06 02:18:57;;;;;;;14.07;3.00;;;;;;;;;;5013388;28;92557;-74
2022/10/06 02:21:23;;;;;;;18.58;2.60;;;;;;;;;;5013453;28;94874;-74
2022/10/06 02:23:50;;;;;;;14.02;2.38;;;;;;;;;;5012090;28;94524;-74
2022/10/06 02:26:16;;;;;;;12.05;2.67;;;;;;;;;;5014068;28;93783;-74
2022/10/06 02:28:45;;;;;;;12.20;1.95;;;;;;;;;;5013395;28;93999;-74
2022/10/06 02:31:15;;;;;;;14.80;2.33;;;;;;;;;;4992483;28;93021;-74
2022/10/06 02:33:42;;;;;;;21.52;2.85;;;;;;;;;;4994866;28;92903;-74
2022/10/06 02:36:11;;;;;;;14.80;2.35;;;;;;;;;;4992142;28;96423;-74
2022/10/06 02:38:38;;;;;;;8.65;2.17;;;;;;;;;;4993627;28;91675;-74
2022/10/06 02:41:07;;;;;;;13.73;3.38;;;;;;;;;;4993374;28;93205;-74
2022/10/06 02:43:34;;;;;;;18.20;2.83;;;;;;;;;;4995784;28;94270;-74
2022/10/06 02:46:03;;;;;;;13.90;2.85;;;;;;;;;;5011284;28;95128;-74
2022/10/06 02:48:32;;;;;;;12.10;2.78;;;;;;;;;;5013390;28;97679;-74
2022/10/06 02:51:00;;;;;;;7.80;2.17;;;;;;;;;;5015225;28;95785;-74
2022/10/06 02:53:26;;;;;;;16.40;2.65;;;;;;;;;;5014675;28;93823;-74
2022/10/06 02:55:58;;;;;;;7.05;2.10;;;;;;;;;;4996023;28;94977;-74
2022/10/06 02:58:24;;;;;;;11.98;2.15;;;;;;;;;;4992962;28;93029;-74
2022/10/06 03:00:51;;;;;;;18.92;3.78;;;;;;;;;;4995871;28;93935;-73
2022/10/06 03:03:18;;;;;;;6.10;2.05;;;;;;;;;;4998142;28;92322;-74
2022/10/06 03:05:44;;;;;;;11.07;2.20;;;;;;;;;;4997422;28;92451;-74
2022/10/06 03:08:11;;;;;;;10.43;2.15;;;;;;;;;;4996401;28;95476;-73
2022/10/06 03:10:37;;;;;;;9.85;2.88;;;;;;;;;;4995979;28;95604;-74
2022/10/06 03:13:05;;;;;;;8.80;2.65;;;;;;;;;;4999200;28;92434;-74
2022/10/06 03:15:31;;;;;;;16.80;2.55;;;;;;;;;;4997085;28;95071;-74
2022/10/06 03:17:57;;;;;;;14.30;2.70;;;;;;;;;;4997629;28;92397;-74
2022/10/06 03:20:24;;;;;;;15.25;2.47;;;;;;;;;;4996995;28;93304;-74
2022/10/06 03:22:52;;;;;;;15.65;2.22;;;;;;;;;;4997171;28;93230;-74
2022/10/06 03:25:19;;;;;;;9.85;2.55;;;;;;;;;;4994573;28;92453;-74
2022/10/06 03:27:45;;;;;;;9.13;2.88;;;;;;;;;;4998241;28;92713;-74
2022/10/06 03:30:11;;;;;;;22.50;2.58;;;;;;;;;;4995824;28;95830;-73
2022/10/06 03:32:38;;;;;;;8.73;2.67;;;;;;;;;;5000339;28;92473;-76
2022/10/06 03:35:07;;;;;;;8.57;2.65;;;;;;;;;;4994040;28;98295;-76
2022/10/06 03:37:33;;;;;;;12.95;2.60;;;;;;;;;;4995933;28;92489;-73
2022/10/06 03:40:00;;;;;;;12.32;2.35;;;;;;;;;;4991290;28;94196;-74
2022/10/06 03:42:26;;;;;;;11.68;2.35;;;;;;;;;;4995358;28;95403;-76
2022/10/06 03:44:53;;;;;;;15.55;3.53;;;;;;;;;;5010464;28;93393;-75
2022/10/06 03:47:19;;;;;;;18.33;3.25;;;;;;;;;;5014801;28;94854;-75
2022/10/06 03:49:45;;;;;;;10.18;2.03;;;;;;;;;;5009591;28;95720;-75
2022/10/06 03:52:13;;;;;;;12.93;2.85;;;;;;;;;;4996116;28;91742;-75
2022/10/06 03:54:40;;;;;;;13.52;2.60;;;;;;;;;;4998029;28;94676;-75
2022/10/06 03:57:07;;;;;;;8.93;2.80;;;;;;;;;;4996961;28;92392;-75
2022/10/06 03:59:34;;;;;;;20.63;4.35;;;;;;;;;;4994183;28;94691;-74
2022/10/06 04:02:04;;;;;;;22.83;2.45;;;;;;;;;;4994623;28;96026;-74
2022/10/06 04:04:34;;;;;;;20.75;3.25;;;;;;;;;;4995600;28;92601;-74
2022/10/06 04:07:05;;;;;;;16.92;3.40;;;;;;;;;;5001674;28;94964;-75
2022/10/06 04:09:32;;;;;;;14.93;2.97;;;;;;;;;;4994719;28;95615;-74
2022/10/06 04:11:59;;;;;;;14.82;2.35;;;;;;;;;;4995928;28;92710;-74
2022/10/06 04:14:26;;;;;;;16.20;3.88;;;;;;;;;;4995502;28;95170;-74
2022/10/06 04:16:55;;;;;;;16.33;2.53;;;;;;;;;;4999002;28;95511;-74
2022/10/06 04:19:31;;;;;;;11.57;2.60;;;;;;;;;;4995892;28;94109;-74
2022/10/06 04:21:57;;;;;;;9.40;2.22;;;;;;;;;;4994357;28;95821;-75
2022/10/06 04:24:24;;;;;;;15.60;2.70;;;;;;;;;;5004932;28;94950;-75
2022/10/06 04:26:51;;;;;;;15.20;3.45;;;;;;;;;;5015355;28;97959;-74
2022/10/06 04:29:19;;;;;;;17.08;3.08;;;;;;;;;;5014262;28;95544;-74
2022/10/06 04:31:50;;;;;;;20.70;2.63;;;;;;;;;;5015337;28;92524;-74
2022/10/06 04:34:23;;;;;;;14.70;3.05;;;;;;;;;;5015124;28;95267;-74
2022/10/06 04:36:50;;;;;;;10.27;2.72;;;;;;;;;;4997139;28;94124;-74
2022/10/06 04:39:17;;;;;;;17.75;2.85;;;;;;;;;;4997114;28;92540;-74
2022/10/06 04:41:46;;;;;;;13.57;3.20;;;;;;;;;;4997046;28;93343;-74
2022/10/06 04:44:17;;;;;;;12.27;3.07;;;;;;;;;;5030793;28;92770;-74
2022/10/06 04:46:45;;;;;;;12.88;2.78;;;;;;;;;;5015169;28;92996;-74
2022/10/06 04:49:12;;;;;;;15.27;3.17;;;;;;;;;;5012802;28;95533;-73
2022/10/06 04:51:46;;;;;;;14.93;2.50;;;;;;;;;;5014154;28;92565;-74
2022/10/06 04:54:13;;;;;;;13.77;3.03;;;;;;;;;;5015988;28;92732;-74
2022/10/06 04:56:39;;;;;;;17.45;2.33;;;;;;;;;;5014059;28;95480;-74
2022/10/06 04:59:06;;;;;;;16.88;4.93;;;;;;;;;;4997192;28;92370;-74
2022/10/06 05:01:36;;;;;;;11.15;2.65;;;;;;;;;;4997531;28;95705;-74
2022/10/06 05:04:06;;;;;;;14.10;3.28;;;;;;;;;;4993656;28;92451;-74
2022/10/06 05:06:35;;;;;;;12.38;2.75;;;;;;;;;;4994805;28;95257;-74
2022/10/06 05:09:09;;;;;;;12.05;2.22;;;;;;;;;;4994237;28;95611;-74
2022/10/06 05:11:37;;;;;;;18.00;4.32;;;;;;;;;;4993951;28;92910;-74
2022/10/06 05:14:06;;;;;;;14.00;2.78;;;;;;;;;;4993052;28;94826;-74
2022/10/06 05:16:37;;;;;;;11.30;3.45;;;;;;;;;;4994288;28;95937;-74
2022/10/06 05:19:05;;;;;;;12.02;2.50;;;;;;;;;;4993392;28;92456;-74
2022/10/06 05:21:32;;;;;;;26.20;3.65;;;;;;;;;;4997445;28;95657;-74
2022/10/06 05:23:59;;;;;;;9.98;2.65;;;;;;;;;;4992976;28;92465;-75
2022/10/06 05:26:27;;;;;;;13.55;2.92;;;;;;;;;;4993606;28;94039;-74
2022/10/06 05:28:54;;;;;;;8.25;2.38;;;;;;;;;;4994090;28;93165;-75
2022/10/06 05:31:28;;;;;;;25.23;3.00;;;;;;;;;;4995214;28;91781;-74
2022/10/06 05:33:55;;;;;;;15.95;3.17;;;;;;;;;;4993559;28;94454;-74
2022/10/06 05:36:23;;;;;;;14.95;3.13;;;;;;;;;;4995185;28;92940;-74
2022/10/06 05:38:51;;;;;;;9.35;2.58;;;;;;;;;;4988097;28;94900;-74
2022/10/06 05:41:36;;;;;;;17.13;2.90;;;;;;;;;;4985168;28;97142;-74
2022/10/06 05:44:06;;;;;;;9.52;2.67;;;;;;;;;;5033710;28;94350;-74
2022/10/06 05:46:34;;;;;;;9.07;2.30;;;;;;;;;;5013224;28;92903;-74
2022/10/06 05:49:02;;;;;;;12.38;2.83;;;;;;;;;;5012380;28;94754;-74
2022/10/06 05:51:31;;;;;;;13.82;2.70;;;;;;;;;;5013930;28;92470;-74
2022/10/06 05:54:00;;;;;;;15.40;3.05;;;;;;;;;;5012344;28;95101;-74
2022/10/06 05:56:28;;;;;;;14.77;2.83;;;;;;;;;;5014005;28;95247;-74
2022/10/06 05:58:56;;;;;;;12.45;2.85;;;;;;;;;;5013965;28;92509;-74
2022/10/06 06:01:27;;;;;;;15.20;3.20;;;;;;;;;;5001892;28;94947;-74
2022/10/06 06:03:56;;;;;;;15.65;3.00;;;;;;;;;;4990505;28;98351;-74
2022/10/06 06:06:26;;;;;;;14.15;2.60;;;;;;;;;;5011151;28;92533;-74
2022/10/06 06:09:11;;;;;;;22.13;3.00;;;;;;;;;;4991524;28;93670;-74
2022/10/06 06:11:40;;;;;;;18.85;3.63;;;;;;;;;;4992685;28;92514;-74
2022/10/06 06:14:08;;;;;;;11.38;3.08;;;;;;;;;;4992595;28;93930;-74
2022/10/06 06:16:35;;;;;;;17.58;3.30;;;;;;;;;;4994893;28;92987;-75
2022/10/06 06:19:02;;;;;;;15.73;3.08;;;;;;;;;;4992654;28;93011;-74
2022/10/06 06:21:29;;;;;;;17.63;3.60;;;;;;;;;;4991431;28;95342;-75
2022/10/06 06:23:56;;;;;;;11.73;2.90;;;;;;;;;;4992736;28;94033;-75
2022/10/06 06:26:27;;;;;;;17.20;3.35;;;;;;;;;;4993790;28;92464;-74
2022/10/06 06:28:59;;;;;;;14.23;3.28;;;;;;;;;;4994167;28;94913;-74
2022/10/06 06:31:26;;;;;;;17.67;3.22;;;;;;;;;;4992671;28;93880;-76
2022/10/06 06:33:55;;;;;;;15.65;3.58;;;;;;;;;;4993583;28;92832;-74
2022/10/06 06:36:40;;;;;;;16.00;3.08;;;;;;;;;;5007958;28;95373;-74
2022/10/06 06:39:11;;;;;;;14.00;2.50;;;;;;;;;;4983441;28;92456;-74
2022/10/06 06:41:40;;;;;;;16.60;3.58;;;;;;;;;;4989673;28;95532;-74
2022/10/06 06:44:18;;;;;;;12.25;2.75;;;;;;;;;;4991126;28;95360;-74
2022/10/06 06:47:00;;;;;;;21.08;3.08;;;;;;;;;;5004738;28;91726;-74
2022/10/06 06:49:26;;;;;;;23.50;3.47;;;;;;;;;;5011309;28;94515;-74
2022/10/06 06:51:57;;;;;;;15.32;2.83;;;;;;;;;;4997853;28;95468;-75
2022/10/06 06:54:26;;;;;;;13.93;2.92;;;;;;;;;;4992509;28;96482;-74
2022/10/06 06:57:00;;;;;;;23.30;4.47;;;;;;;;;;4995443;28;95304;-74
2022/10/06 06:59:26;;;;;;;13.75;2.63;;;;;;;;;;4996497;28;94276;-74
2022/10/06 07:01:56;;;;;;;19.33;3.33;;;;;;;;;;4990219;28;93944;-74
2022/10/06 07:04:23;;;;;;;15.90;3.15;;;;;;;;;;4992192;28;94514;-74
2022/10/06 07:06:57;;;;;;;22.02;4.13;;;;;;;;;;4995010;28;92457;-74
2022/10/06 07:09:33;;;;;;;16.75;3.20;;;;;;;;;;4995582;28;94560;-73
2022/10/06 07:12:03;;;;;;;19.48;3.67;;;;;;;;;;4992974;28;93580;-74
2022/10/06 07:14:30;;;;;;;22.48;3.38;;;;;;;;;;5015479;28;92499;-74
2022/10/06 07:25:25;;;;;;;14.15;2.72;;;;;;;;;;5002459;28;96080;-75
2022/10/06 07:28:01;;;;;;;27.27;3.30;;;;;;;;;;4975945;28;92415;-75
2022/10/06 07:30:31;;;;;;;23.90;4.25;;;;;;;;;;4981501;28;95451;-75
2022/10/06 07:33:10;;;;;;;17.33;3.42;;;;;;;;;;4994884;28;95693;-74
2022/10/06 07:35:37;;;;;;;17.95;3.13;;;;;;;;;;4999278;28;92447;-75
2022/10/06 07:38:06;;;;;;;17.77;3.63;;;;;;;;;;4996211;28;94338;-75
2022/10/06 07:40:40;;;;;;;18.50;3.45;;;;;;;;;;4991944;28;92622;-75
2022/10/06 07:43:21;;;;;;;12.50;3.03;;;;;;;;;;4988491;28;95317;-75
2022/10/06 07:45:49;;;;;;;12.77;3.10;;;;;;;;;;4990838;28;98537;-74
2022/10/06 07:48:21;;;;;;;17.83;3.20;;;;;;;;;;4994807;28;95662;-74
2022/10/06 07:50:57;;;;;;;20.38;3.58;;;;;;;;;;4994484;28;92546;-74
2022/10/06 07:53:31;;;;;;;23.60;3.67;;;;;;;;;;5011683;28;95118;-75
2022/10/06 07:56:05;;;;;;;17.00;3.38;;;;;;;;;;4995623;28;92605;-76
2022/10/06 07:58:38;;;;;;;15.32;2.97;;;;;;;;;;5008014;28;93843;-76
2022/10/06 08:01:05;;;;;;;14.25;3.22;;;;;;;;;;4994667;28;92704;-77
2022/10/06 08:03:32;;;;;;;21.73;4.45;;;;;;;;;;4995502;28;94103;-76
2022/10/06 08:05:59;;;;;;;25.27;3.72;;;;;;;;;;4978661;28;93301;-74
2022/10/06 08:08:25;;;;;;;14.32;4.00;;;;;;;;;;4976261;28;92438;-74
2022/10/06 08:10:53;;;;;;;15.93;3.38;;;;;;;;;;4975368;28;94681;-75
2022/10/06 08:13:20;;;;;;;15.35;3.33;;;;;;;;;;4976756;28;93587;-74
2022/10/06 08:15:48;;;;;;;20.42;3.35;;;;;;;;;;4976064;28;92692;-74
2022/10/06 08:18:15;;;;;;;17.17;3.00;;;;;;;;;;4976359;28;94052;-74
2022/10/06 08:20:59;;;;;;;14.55;3.28;;;;;;;;;;4979021;28;93175;-75
2022/10/06 08:23:25;;;;;;;22.88;3.20;;;;;;;;;;4976789;28;93748;-74
2022/10/06 08:25:53;;;;;;;15.07;4.05;;;;;;;;;;4975924;28;94532;-74
2022/10/06 08:28:21;;;;;;;19.52;3.35;;;;;;;;;;4975868;28;91705;-74
2022/10/06 08:30:50;;;;;;;11.38;2.83;;;;;;;;;;4986017;28;93264;-74
2022/10/06 08:33:16;;;;;;;12.98;3.38;;;;;;;;;;4996125;28;94212;-75
2022/10/06 08:35:46;;;;;;;32.22;3.83;;;;;;;;;;4993771;28;95231;-74
2022/10/06 08:38:13;;;;;;;16.85;2.90;;;;;;;;;;4995941;28;97029;-75
2022/10/06 08:40:41;;;;;;;25.30;3.50;;;;;;;;;;4996603;28;93549;-74
2022/10/06 08:43:12;;;;;;;15.52;3.47;;;;;;;;;;4998409;28;92645;-74
2022/10/06 08:45:42;;;;;;;18.05;3.55;;;;;;;;;;4996530;28;93362;-74
2022/10/06 08:48:20;;;;;;;9.25;2.50;;;;;;;;;;4997926;28;92438;-75
2022/10/06 08:51:07;;;;;;;15.63;3.10;;;;;;;;;;4995564;28;93958;-74
2022/10/06 08:53:53;;;;;;;10.18;2.20;;;;;;;;;;4996336;28;93124;-74
2022/10/06 08:56:23;;;;;;;11.23;2.65;;;;;;;;;;4994840;28;92448;-74
2022/10/06 08:58:49;;;;;;;21.98;4.15;;;;;;;;;;4995444;28;93992;-74
2022/10/06 09:01:18;;;;;;;10.73;2.67;;;;;;;;;;4993863;28;96001;-74
2022/10/06 09:03:47;;;;;;;17.35;3.08;;;;;;;;;;4995001;28;92492;-74
2022/10/06 09:06:20;;;;;;;15.60;3.17;;;;;;;;;;4998751;28;94228;-74
2022/10/06 09:08:49;;;;;;;17.60;3.10;;;;;;;;;;4995879;28;92402;-74
2022/10/06 09:11:37;;;;;;;8.23;2.00;;;;;;;;;;4994956;28;94143;-74
2022/10/06 09:14:08;;;;;;;10.63;2.25;;;;;;;;;;4995588;28;94042;-74
2022/10/06 09:16:37;;;;;;;17.90;3.25;;;;;;;;;;4995836;28;92513;-74
2022/10/06 09:19:06;;;;;;;10.10;2.85;;;;;;;;;;4995229;28;94259;-75
2022/10/06 09:21:49;;;;;;;19.50;3.00;;;;;;;;;;4995688;28;94044;-74
2022/10/06 09:24:16;;;;;;;18.10;2.85;;;;;;;;;;4994485;28;92820;-74
2022/10/06 09:26:44;;;;;;;13.40;2.33;;;;;;;;;;4994233;28;94720;-74
2022/10/06 09:29:10;;;;;;;12.38;2.58;;;;;;;;;;4998310;28;92339;-75
2022/10/06 09:31:38;;;;;;;11.15;2.33;;;;;;;;;;4993754;28;93587;-74
2022/10/06 09:34:07;;;;;;;10.68;2.72;;;;;;;;;;4994826;28;93448;-75
2022/10/06 09:36:53;;;;;;;15.02;2.45;;;;;;;;;;4995391;28;92459;-74
2022/10/06 09:39:31;;;;;;;15.40;2.88;;;;;;;;;;4995244;28;92950;-74
2022/10/06 09:42:02;;;;;;;15.00;2.45;;;;;;;;;;4994893;28;94160;-75
2022/10/06 09:44:39;;;;;;;13.57;2.22;;;;;;;;;;4995742;28;91766;-75
2022/10/06 09:47:31;;;;;;;14.07;2.65;;;;;;;;;;4994379;28;93177;-75
2022/10/06 09:50:03;;;;;;;10.85;2.22;;;;;;;;;;4996836;28;93480;-75
2022/10/06 09:52:29;;;;;;;9.23;2.17;;;;;;;;;;4993019;28;94660;-74
2022/10/06 09:55:27;;;;;;;8.75;1.88;;;;;;;;;;4995435;28;93462;-74
2022/10/06 09:57:57;;;;;;;12.57;2.10;;;;;;;;;;4994849;28;92456;-75
2022/10/06 10:00:31;;;;;;;6.03;1.63;;;;;;;;;;4994498;28;93203;-74
2022/10/06 10:02:59;;;;;;;9.52;2.63;;;;;;;;;;4992881;28;94085;-75
2022/10/06 10:05:26;;;;;;;8.43;1.85;;;;;;;;;;4995185;28;92515;-75
2022/10/06 10:07:59;;;;;;;16.45;2.78;;;;;;;;;;4994403;28;93915;-74
2022/10/06 10:10:26;;;;;;;6.97;2.00;;;;;;;;;;4995185;28;93385;-74
2022/10/06 10:12:53;;;;;;;12.38;2.25;;;;;;;;;;4998221;28;92472;-75
2022/10/06 10:15:20;;;;;;;13.25;2.35;;;;;;;;;;4993679;28;94316;-75
2022/10/06 10:18:03;;;;;;;10.65;2.08;;;;;;;;;;4993470;28;94901;-75
2022/10/06 10:20:33;;;;;;;6.90;2.72;;;;;;;;;;4994299;28;96278;-75
2022/10/06 10:23:01;;;;;;;8.88;2.58;;;;;;;;;;4994424;28;94251;-75
2022/10/06 10:25:43;;;;;;;16.48;2.78;;;;;;;;;;4994450;28;92444;-74
2022/10/06 10:28:09;;;;;;;9.65;2.03;;;;;;;;;;4983311;28;92729;-74
2022/10/06 10:30:44;;;;;;;7.68;1.88;;;;;;;;;;4994455;28;94626;-74
2022/10/06 10:33:33;;;;;;;10.43;2.38;;;;;;;;;;4994552;28;92397;-75
2022/10/06 10:36:01;;;;;;;6.95;1.90;;;;;;;;;;4980501;28;94127;-75
2022/10/06 10:38:29;;;;;;;13.55;1.95;;;;;;;;;;4995182;28;92548;-75
2022/10/06 10:40:59;;;;;;;11.77;2.40;;;;;;;;;;4995047;28;92908;-75
2022/10/06 10:43:33;;;;;;;9.43;2.20;;;;;;;;;;4991940;28;96550;-75
2022/10/06 10:46:08;;;;;;;16.02;2.20;;;;;;;;;;4994666;28;92472;-75
2022/10/06 10:48:55;;;;;;;4.32;1.55;;;;;;;;;;4994114;28;93046;-75
2022/10/06 10:51:25;;;;;;;8.30;2.13;;;;;;;;;;4982987;28;94305;-75
2022/10/06 10:54:04;;;;;;;6.22;1.48;;;;;;;;;;4994616;28;92485;-75
2022/10/06 10:56:31;;;;;;;6.32;1.77;;;;;;;;;;4993621;28;92979;-75
2022/10/06 10:59:31;;;;;;;11.73;1.95;;;;;;;;;;4997037;28;93209;-75
2022/10/06 11:02:00;;;;;;;9.52;1.92;;;;;;;;;;4971756;28;93973;-75
2022/10/06 11:04:26;;;;;;;7.53;1.15;;;;;;;;;;4993510;28;93271;-75
2022/10/06 11:07:11;;;;;;;6.25;1.80;;;;;;;;;;4993945;28;93176;-75
2022/10/06 11:09:52;;;;;;;6.13;1.52;;;;;;;;;;4990973;28;95286;-75
2022/10/06 11:12:36;;;;;;;8.07;1.48;;;;;;;;;;4994167;28;93385;-75
2022/10/06 11:15:19;;;;;;;8.90;2.15;;;;;;;;;;4993780;28;92362;-75
2022/10/06 11:17:46;;;;;;;;;;;;;;;;;;4993867;28;93747;-75
2022/10/06 11:20:35;;;;;;;7.35;1.48;;;;;;;;;;4994272;28;123791;-75
2022/10/06 11:23:01;;;;;;;6.90;1.75;;;;;;;;;;5000573;28;92404;-75
2022/10/06 11:25:33;;;;;;;10.05;1.85;;;;;;;;;;4995454;28;93425;-75
2022/10/06 11:28:03;;;;;;;8.32;1.83;;;;;;;;;;4996168;28;91722;-75
2022/10/06 11:30:34;;;;;;;4.60;1.50;;;;;;;;;;4997264;28;93340;-75
2022/10/06 11:33:06;;;;;;;5.97;1.88;;;;;;;;;;4997316;28;94104;-75
2022/10/06 11:35:34;;;;;;;7.88;1.77;;;;;;;;;;4995592;28;95314;-75
2022/10/06 11:38:09;;;;;;;8.02;1.85;;;;;;;;;;4996129;28;96476;-75
2022/10/06 11:40:56;;;;;;;3.50;1.52;;;;;;;;;;4997214;28;94104;-75
2022/10/06 11:43:45;;;;;;;5.78;1.33;;;;;;;;;;4997396;28;92472;-75
2022/10/06 11:46:12;;;;;;;6.30;1.73;;;;;;;;;;4993337;28;94032;-75
2022/10/06 11:48:39;;;;;;;4.93;1.17;;;;;;;;;;4997101;28;92486;-75
2022/10/06 11:51:25;;;;;;;9.45;1.77;;;;;;;;;;4997066;28;93149;-75
2022/10/06 11:53:54;;;;;;;4.30;1.50;;;;;;;;;;4996602;28;92395;-75
2022/10/06 11:56:20;;;;;;;6.15;1.67;;;;;;;;;;4996416;28;92344;-75
2022/10/06 11:58:49;;;;;;;7.28;1.90;;;;;;;;;;4996116;28;92901;-75
2022/10/06 12:01:31;;;;;;;5.68;1.48;;;;;;;;;;4994910;28;96642;-75
2022/10/06 12:04:07;;;;;;;7.63;1.77;;;;;;;;;;4996929;28;92450;-75
2022/10/06 12:06:43;;;;;;;8.23;2.00;;;;;;;;;;4998991;28;93877;-75
2022/10/06 12:09:25;;;;;;;11.20;1.88;;;;;;;;;;4996941;28;92516;-75
2022/10/06 12:11:55;;;;;;;10.38;1.92;;;;;;;;;;4997360;28;93274;-75
2022/10/06 12:14:38;;;;;;;10.57;1.77;;;;;;;;;;4996208;28;94034;-75
2022/10/06 12:17:36;;;;;;;15.75;1.83;;;;;;;;;;4996536;28;92374;-75
2022/10/06 12:20:21;;;;;;;5.45;1.83;;;;;;;;;;4996350;28;94086;-75
2022/10/06 12:22:56;;;;;;;7.45;1.67;;;;;;;;;;4996676;28;94061;-75
2022/10/06 12:25:30;;;;;;;11.20;1.75;;;;;;;;;;4996029;28;92449;-75
2022/10/06 12:28:08;;;;;;;5.90;2.25;;;;;;;;;;4994116;28;94800;-75
2022/10/06 12:30:53;;;;;;;9.20;1.67;;;;;;;;;;4999615;28;93189;-75
2022/10/06 12:33:33;;;;;;;14.75;3.03;;;;;;;;;;4996225;28;94031;-75
2022/10/06 12:36:03;;;;;;;6.20;2.00;;;;;;;;;;4995148;28;93601;-75
2022/10/06 12:38:29;;;;;;;7.60;1.52;;;;;;;;;;4996739;28;92517;-75
2022/10/06 12:40:56;;;;;;;12.07;2.25;;;;;;;;;;4995910;28;93399;-76
2022/10/06 12:43:22;;;;;;;5.13;1.70;;;;;;;;;;4996259;28;93417;-75
2022/10/06 12:45:55;;;;;;;10.10;1.70;;;;;;;;;;4996950;28;92011;-75
2022/10/06 12:48:40;;;;;;;8.70;1.67;;;;;;;;;;4995772;28;94083;-76
2022/10/06 12:51:28;;;;;;;7.85;2.45;;;;;;;;;;4995489;28;94232;-75
2022/10/06 12:54:00;;;;;;;7.95;2.38;;;;;;;;;;4998010;28;94796;-75
2022/10/06 12:56:30;;;;;;;9.40;2.03;;;;;;;;;;4995362;28;94122;-76
2022/10/06 12:58:57;;;;;;;8.75;2.15;;;;;;;;;;4995934;28;92467;-76
2022/10/06 13:01:26;;;;;;;9.00;1.80;;;;;;;;;;4995905;28;92892;-75
2022/10/06 13:03:52;;;;;;;7.05;2.30;;;;;;;;;;4995261;28;93357;-75
2022/10/06 13:06:20;;;;;;;6.07;1.73;;;;;;;;;;4995417;28;92400;-75
2022/10/06 13:09:00;;;;;;;8.65;1.75;;;;;;;;;;4994396;28;92905;-76
2022/10/06 13:11:27;;;;;;;12.02;1.70;;;;;;;;;;4996218;28;93496;-75
2022/10/06 13:13:55;;;;;;;9.32;1.63;;;;;;;;;;4995825;28;92401;-75
2022/10/06 13:16:25;;;;;;;6.05;1.50;;;;;;;;;;4998181;28;95129;-75
2022/10/06 13:18:56;;;;;;;5.38;2.10;;;;;;;;;;4994289;28;95337;-75
2022/10/06 13:21:22;;;;;;;5.93;1.60;;;;;;;;;;4994912;28;96336;-75
2022/10/06 13:23:49;;;;;;;6.22;1.60;;;;;;;;;;4994832;28;93184;-75
2022/10/06 13:26:30;;;;;;;8.95;2.00;;;;;;;;;;4995133;28;92960;-75
2022/10/06 13:28:58;;;;;;;11.00;3.03;;;;;;;;;;4995426;28;94035;-75
2022/10/06 13:31:27;;;;;;;9.57;2.03;;;;;;;;;;4993590;28;94108;-75
2022/10/06 13:34:04;;;;;;;15.50;2.10;;;;;;;;;;4995691;28;92457;-75
2022/10/06 13:36:32;;;;;;;7.35;1.50;;;;;;;;;;4996011;28;93884;-75
2022/10/06 13:38:58;;;;;;;11.23;1.98;;;;;;;;;;4997364;28;94209;-75
2022/10/06 13:41:29;;;;;;;7.63;2.45;;;;;;;;;;4995629;28;93960;-75
2022/10/06 13:44:00;;;;;;;6.13;1.73;;;;;;;;;;4993072;28;96522;-74
2022/10/06 13:46:29;;;;;;;7.85;1.73;;;;;;;;;;4995023;28;92887;-75
2022/10/06 13:48:59;;;;;;;7.43;2.05;;;;;;;;;;4995897;28;93130;-74
2022/10/06 13:51:31;;;;;;;5.85;1.77;;;;;;;;;;4994037;28;94843;-75
2022/10/06 13:53:58;;;;;;;12.25;2.00;;;;;;;;;;4995213;28;92444;-75
2022/10/06 13:56:42;;;;;;;9.15;1.75;;;;;;;;;;4995177;28;93151;-75
2022/10/06 13:59:26;;;;;;;11.70;2.47;;;;;;;;;;4994012;28;94492;-75
2022/10/06 14:01:54;;;;;;;13.73;2.17;;;;;;;;;;4996863;28;91672;-75
2022/10/06 14:04:21;;;;;;;9.50;2.05;;;;;;;;;;4994810;28;94970;-75
2022/10/06 14:06:49;;;;;;;7.20;1.67;;;;;;;;;;4994307;28;92860;-75
2022/10/06 14:09:18;;;;;;;6.20;1.73;;;;;;;;;;4993369;28;94759;-75
2022/10/06 14:11:45;;;;;;;7.57;1.60;;;;;;;;;;4994973;28;94436;-75
2022/10/06 14:14:13;;;;;;;10.45;1.50;;;;;;;;;;4994204;28;92463;-75
2022/10/06 14:16:45;;;;;;;4.10;1.63;;;;;;;;;;4995348;28;93279;-75
2022/10/06 14:19:29;;;;;;;4.45;1.30;;;;;;;;;;4994538;28;94287;-75
2022/10/06 14:21:55;;;;;;;4.85;1.73;;;;;;;;;;4997678;28;92623;-75
2022/10/06 14:24:24;;;;;;;2.97;1.40;;;;;;;;;;4994255;28;94208;-75
2022/10/06 14:26:53;;;;;;;4.30;1.52;;;;;;;;;;4994575;28;91643;-75
2022/10/06 14:29:21;;;;;;;7.72;1.42;;;;;;;;;;4994748;28;92302;-75
2022/10/06 14:31:47;;;;;;;4.38;1.40;;;;;;;;;;4993514;28;94466;-75
2022/10/06 14:34:15;;;;;;;4.07;1.50;;;;;;;;;;4992157;28;94964;-75
2022/10/06 14:36:43;;;;;;;5.88;1.60;;;;;;;;;;4994840;28;95637;-75
2022/10/06 14:39:10;;;;;;;5.60;2.22;;;;;;;;;;4994244;28;94449;-75
2022/10/06 14:41:36;;;;;;;6.47;1.40;;;;;;;;;;4994137;28;92385;-75
2022/10/06 14:44:04;;;;;;;4.35;1.42;;;;;;;;;;4997246;28;93927;-75
2022/10/06 14:46:31;;;;;;;8.10;1.50;;;;;;;;;;4994854;28;93727;-75
2022/10/06 14:48:58;;;;;;;4.95;1.45;;;;;;;;;;4993559;28;94059;-75
2022/10/06 14:51:25;;;;;;;4.75;1.27;;;;;;;;;;4994798;28;92790;-75
2022/10/06 14:53:53;;;;;;;5.10;1.52;;;;;;;;;;4994580;28;92416;-75
2022/10/06 14:56:20;;;;;;;8.43;1.90;;;;;;;;;;4995217;28;93520;-75
2022/10/06 14:58:47;;;;;;;6.35;1.50;;;;;;;;;;4996418;28;95907;-75
2022/10/06 15:01:15;;;;;;;8.50;1.80;;;;;;;;;;4997765;28;92449;-74